Liberty of The Seas — C6VQ8 — position and weather

sailwx.info

Track history (hours):
 
Tides and Currents Weather Stations Pressure Air Temp Water Temp Dewpoint Dewpoint Depression Visibility Wind Speed Wind Dir Waves Ship Positions

Liberty of The Seas

Last reported at 2019-Feb-23 11:00 UTC. Time now 2019-Feb-23 23:59 UTC.
Position N 24°00' W 088°24'.

Type: Passenger vessel. MMSI: 309436000.

Wind from 140 at 15 knots

Barometer 1017.0 mb
Air temperature 25.0 ° C
Visibility: greater than 10.8 NM
Dewpoint 23.5 ° C

Date/timePositionNaut miles runAvg speedWind from/ knotsBaromVisibWave heightAir tempDewpointWater temp
2019-Feb-23 11:00N 24°00' W 088°24'18222.7 140 / 151017.010.8 25.023.5
2019-Feb-23 03:00N 21°36' W 086°24'6420.1 130 / 261015.0 5.4 26.024.6
2019-Feb-22 23:48N 20°38' W 086°54'622.7
2019-Feb-22 23:30N 20°33' W 086°58'4 7.5
2019-Feb-22 23:00N 20°29' W 086°59'0 0.0
2019-Feb-22 22:30N 20°29' W 086°59'0 0.0
2019-Feb-22 22:00N 20°29' W 086°59'0 0.0
2019-Feb-22 21:27N 20°29' W 086°59'0 0.0
2019-Feb-22 20:51N 20°29' W 086°59'0 0.0
2019-Feb-22 20:27N 20°29' W 086°59'0 0.0
2019-Feb-22 20:00N 20°29' W 086°59'0 0.0
2019-Feb-22 19:30N 20°29' W 086°59'0 0.0
2019-Feb-22 19:00N 20°29' W 086°59'0 0.0
2019-Feb-22 18:30N 20°29' W 086°59'0 0.0
2019-Feb-22 18:00N 20°29' W 086°59'0 0.0
2019-Feb-22 17:30N 20°29' W 086°59'0 0.0
2019-Feb-22 17:00N 20°29' W 086°59'0 0.0
2019-Feb-22 16:30N 20°29' W 086°59'0 0.0
2019-Feb-22 16:00N 20°29' W 086°59'0 0.0
2019-Feb-22 15:30N 20°29' W 086°59'0 0.0
2019-Feb-22 14:57N 20°29' W 086°59'0 0.0
2019-Feb-22 14:30N 20°29' W 086°59'0 0.0
2019-Feb-22 14:00N 20°29' W 086°59'0 0.0
2019-Feb-22 13:30N 20°29' W 086°59'0 0.0
2019-Feb-22 13:00N 20°29' W 086°59'0 0.5
2019-Feb-22 12:30N 20°29' W 086°59'4 7.8
2019-Feb-22 12:00N 20°27' W 087°02'4 8.7
2019-Feb-22 11:30N 20°23' W 087°04'4 8.9
2019-Feb-22 11:00N 20°18' W 087°05'223 6.8
2019-Feb-21 02:00N 16°36' W 086°48'13 0.9 080 / 321010.010.8 26.024.6
2019-Feb-20 11:00N 16°42' W 086°36'33713.5 110 / 401011.0 5.4 25.023.6
2019-Feb-19 10:00N 22°18' W 087°06'11416.3 150 / 211016.0 5.4 25.023.5
2019-Feb-19 03:00N 23°42' W 088°30'41017.1 120 / 251015.0 2.2 24.022.5
2019-Feb-18 03:00N 28°42' W 093°42'680.4 030 / 381007.0 5.4 23.021.5
2019-Feb-18 02:55N 28°46' W 093°47'716.4
2019-Feb-18 02:29N 28°50' W 093°54'1116.6
2019-Feb-18 01:51N 28°56' W 094°03'616.5
2019-Feb-18 01:30N 28°60' W 094°09'916.2
2019-Feb-18 00:56N 29°05' W 094°18'614.8
2019-Feb-18 00:30N 29°07' W 094°24'914.7
2019-Feb-17 23:53N 29°13' W 094°32'615.7
2019-Feb-17 23:30N 29°17' W 094°37'613.1
2019-Feb-17 23:00N 29°21' W 094°43'5 9.0
2019-Feb-17 22:30N 29°19' W 094°48'0 0.1
2019-Feb-17 22:00N 29°19' W 094°48'0 0.0
2019-Feb-17 21:27N 29°19' W 094°48'0 0.0
2019-Feb-17 21:00N 29°19' W 094°48'0 0.0
2019-Feb-17 20:30N 29°19' W 094°48'0 0.0
2019-Feb-17 20:00N 29°19' W 094°48'0 0.0
2019-Feb-17 19:30N 29°19' W 094°48'0 0.0
2019-Feb-17 19:00N 29°19' W 094°48'0 0.0
2019-Feb-17 18:30N 29°19' W 094°48'0 0.0
2019-Feb-17 17:57N 29°19' W 094°48'0 0.0
2019-Feb-17 17:30N 29°19' W 094°48'0 0.0
2019-Feb-17 16:57N 29°19' W 094°48'0 0.0
2019-Feb-17 16:30N 29°19' W 094°48'0 0.0
2019-Feb-17 15:57N 29°19' W 094°48'0 0.0
2019-Feb-17 15:30N 29°19' W 094°48'0 0.0
2019-Feb-17 15:00N 29°19' W 094°48'0 0.0
2019-Feb-17 14:30N 29°19' W 094°48'0 0.0
2019-Feb-17 14:00N 29°19' W 094°48'0 0.0
2019-Feb-17 13:30N 29°19' W 094°48'0 0.0
2019-Feb-17 12:57N 29°19' W 094°48'0 0.0
2019-Feb-17 12:30N 29°19' W 094°48'1 1.2
2019-Feb-17 12:00N 29°19' W 094°47'1 2.1
2019-Feb-17 11:30N 29°20' W 094°47'510.6
2019-Feb-17 11:00N 29°20' W 094°41'713.1
2019-Feb-17 10:29N 29°16' W 094°34'714.1
2019-Feb-17 09:59N 29°12' W 094°28'814.2
2019-Feb-17 09:26N 29°07' W 094°21'1023.6
2019-Feb-17 09:00N 29°00' W 094°12'481.2 180 / 151006.0 5.4 19.017.4
2019-Feb-17 08:57N 29°03' W 094°14'1216.4
2019-Feb-17 08:14N 28°57' W 094°03'417.5
2019-Feb-17 08:00N 28°54' W 093°59'1617.7
2019-Feb-17 07:05N 28°45' W 093°44'317.3
2019-Feb-17 06:55N 28°44' W 093°41'717.4
2019-Feb-17 06:30N 28°40' W 093°34'3724.6
2019-Feb-17 05:00N 28°18' W 093°00'10115.8 160 / 81007.0 5.4 21.019.4
2019-Feb-16 22:33N 27°09' W 091°36'118.3
2019-Feb-16 22:30N 27°08' W 091°36'  
2019-Feb-14 08:00N 18°48' W 079°06'   210 / 151014.010.8 25.023.5
Track history (hours):
 
Tides and Currents Weather Stations Pressure Air Temp Water Temp Dewpoint Dewpoint Depression Visibility Wind Speed Wind Dir Waves Ship Positions

Liberty of The Seas

Last reported at 2019-Feb-23 11:00 UTC. Time now 2019-Feb-23 23:59 UTC.
Position N 24°00' W 088°24'.

Type: Passenger vessel. MMSI: 309436000.

Wind from 140 at 15 knots

Barometer 1017.0 mb
Air temperature 25.0 ° C
Visibility: greater than 10.8 NM
Dewpoint 23.5 ° C

Date/timePositionNaut miles runAvg speedWind from/ knotsBaromVisibWave heightAir tempDewpointWater temp
2019-Feb-23 11:00N 24°00' W 088°24'18222.7 140 / 151017.010.8 25.023.5
2019-Feb-23 03:00N 21°36' W 086°24'6420.1 130 / 261015.0 5.4 26.024.6
2019-Feb-22 23:48N 20°38' W 086°54'622.7
2019-Feb-22 23:30N 20°33' W 086°58'4 7.5
2019-Feb-22 23:00N 20°29' W 086°59'0 0.0
2019-Feb-22 22:30N 20°29' W 086°59'0 0.0
2019-Feb-22 22:00N 20°29' W 086°59'0 0.0
2019-Feb-22 21:27N 20°29' W 086°59'0 0.0
2019-Feb-22 20:51N 20°29' W 086°59'0 0.0
2019-Feb-22 20:27N 20°29' W 086°59'0 0.0
2019-Feb-22 20:00N 20°29' W 086°59'0 0.0
2019-Feb-22 19:30N 20°29' W 086°59'0 0.0
2019-Feb-22 19:00N 20°29' W 086°59'0 0.0
2019-Feb-22 18:30N 20°29' W 086°59'0 0.0
2019-Feb-22 18:00N 20°29' W 086°59'0 0.0
2019-Feb-22 17:30N 20°29' W 086°59'0 0.0
2019-Feb-22 17:00N 20°29' W 086°59'0 0.0
2019-Feb-22 16:30N 20°29' W 086°59'0 0.0
2019-Feb-22 16:00N 20°29' W 086°59'0 0.0
2019-Feb-22 15:30N 20°29' W 086°59'0 0.0
2019-Feb-22 14:57N 20°29' W 086°59'0 0.0
2019-Feb-22 14:30N 20°29' W 086°59'0 0.0
2019-Feb-22 14:00N 20°29' W 086°59'0 0.0
2019-Feb-22 13:30N 20°29' W 086°59'0 0.0
2019-Feb-22 13:00N 20°29' W 086°59'0 0.5
2019-Feb-22 12:30N 20°29' W 086°59'4 7.8
2019-Feb-22 12:00N 20°27' W 087°02'4 8.7
2019-Feb-22 11:30N 20°23' W 087°04'4 8.9
2019-Feb-22 11:00N 20°18' W 087°05'223 6.8
2019-Feb-21 02:00N 16°36' W 086°48'13 0.9 080 / 321010.010.8 26.024.6
2019-Feb-20 11:00N 16°42' W 086°36'33713.5 110 / 401011.0 5.4 25.023.6
2019-Feb-19 10:00N 22°18' W 087°06'11416.3 150 / 211016.0 5.4 25.023.5
2019-Feb-19 03:00N 23°42' W 088°30'41017.1 120 / 251015.0 2.2 24.022.5
2019-Feb-18 03:00N 28°42' W 093°42'680.4 030 / 381007.0 5.4 23.021.5
2019-Feb-18 02:55N 28°46' W 093°47'716.4
2019-Feb-18 02:29N 28°50' W 093°54'1116.6
2019-Feb-18 01:51N 28°56' W 094°03'616.5
2019-Feb-18 01:30N 28°60' W 094°09'916.2
2019-Feb-18 00:56N 29°05' W 094°18'614.8
2019-Feb-18 00:30N 29°07' W 094°24'914.7
2019-Feb-17 23:53N 29°13' W 094°32'615.7
2019-Feb-17 23:30N 29°17' W 094°37'613.1
2019-Feb-17 23:00N 29°21' W 094°43'5 9.0
2019-Feb-17 22:30N 29°19' W 094°48'0 0.1
2019-Feb-17 22:00N 29°19' W 094°48'0 0.0
2019-Feb-17 21:27N 29°19' W 094°48'0 0.0
2019-Feb-17 21:00N 29°19' W 094°48'0 0.0
2019-Feb-17 20:30N 29°19' W 094°48'0 0.0
2019-Feb-17 20:00N 29°19' W 094°48'0 0.0
2019-Feb-17 19:30N 29°19' W 094°48'0 0.0
2019-Feb-17 19:00N 29°19' W 094°48'0 0.0
2019-Feb-17 18:30N 29°19' W 094°48'0 0.0
2019-Feb-17 17:57N 29°19' W 094°48'0 0.0
2019-Feb-17 17:30N 29°19' W 094°48'0 0.0
2019-Feb-17 16:57N 29°19' W 094°48'0 0.0
2019-Feb-17 16:30N 29°19' W 094°48'0 0.0
2019-Feb-17 15:57N 29°19' W 094°48'0 0.0
2019-Feb-17 15:30N 29°19' W 094°48'0 0.0
2019-Feb-17 15:00N 29°19' W 094°48'0 0.0
2019-Feb-17 14:30N 29°19' W 094°48'0 0.0
2019-Feb-17 14:00N 29°19' W 094°48'0 0.0
2019-Feb-17 13:30N 29°19' W 094°48'0 0.0
2019-Feb-17 12:57N 29°19' W 094°48'0 0.0
2019-Feb-17 12:30N 29°19' W 094°48'1 1.2
2019-Feb-17 12:00N 29°19' W 094°47'1 2.1
2019-Feb-17 11:30N 29°20' W 094°47'510.6
2019-Feb-17 11:00N 29°20' W 094°41'713.1
2019-Feb-17 10:29N 29°16' W 094°34'714.1
2019-Feb-17 09:59N 29°12' W 094°28'814.2
2019-Feb-17 09:26N 29°07' W 094°21'1023.6
2019-Feb-17 09:00N 29°00' W 094°12'481.2 180 / 151006.0 5.4 19.017.4
2019-Feb-17 08:57N 29°03' W 094°14'1216.4
2019-Feb-17 08:14N 28°57' W 094°03'417.5
2019-Feb-17 08:00N 28°54' W 093°59'1617.7
2019-Feb-17 07:05N 28°45' W 093°44'317.3
2019-Feb-17 06:55N 28°44' W 093°41'717.4
2019-Feb-17 06:30N 28°40' W 093°34'3724.6
2019-Feb-17 05:00N 28°18' W 093°00'10115.8 160 / 81007.0 5.4 21.019.4
2019-Feb-16 22:33N 27°09' W 091°36'118.3
2019-Feb-16 22:30N 27°08' W 091°36'  
2019-Feb-14 08:00N 18°48' W 079°06'   210 / 151014.010.8 25.023.5

Dump ship's entire track history